This is the latest recevied weather packets stored in our database for station/object LRCK. If no packets are shown the sender has not sent any weather packets the latest 10 day(s).
| Time | Temp. | Humidity | Pressure | Rain* | Wind** | Luminosity | Snow |
|---|---|---|---|---|---|---|---|
| 1777834998 | 6.11° C | 76% | 1018 hPa | - | - | - | - |
| 1777834173 | 5° C | 76% | 1019 hPa | - | - | - | - |
| 1777833197 | 5° C | 76% | 1019 hPa | - | - | - | - |
| 1777832297 | 7.78° C | 62% | 1019 hPa | - | - | - | - |
| 1777831397 | 7.78° C | 62% | 1019 hPa | - | - | - | - |
| 1777830517 | 7.78° C | 66% | 1018 hPa | - | - | - | - |
| 1777829622 | 7.78° C | 66% | 1018 hPa | - | - | - | - |
| 1777828697 | 8.89° C | 66% | 1018 hPa | - | - | - | - |
| 1777827798 | 8.89° C | 66% | 1018 hPa | - | - | - | - |
| 1777826897 | 10° C | 58% | 1018 hPa | - | - | - | - |
| 1777825997 | 10° C | 58% | 1018 hPa | - | - | - | - |
| 1777825097 | 11.11° C | 54% | 1019 hPa | - | - | - | - |
| 1777824217 | 11.11° C | 54% | 1019 hPa | - | - | - | - |
| 1777823339 | 12.22° C | 51% | 1019 hPa | - | - | - | - |
| 1777822397 | 12.22° C | 51% | 1019 hPa | - | - | - | - |
| 1777821498 | 12.22° C | 51% | 1019 hPa | - | - | - | - |
| 1777820597 | 12.22° C | 51% | 1019 hPa | - | - | - | - |
| 1777819700 | 12.22° C | 54% | 1019 hPa | - | - | - | - |
| 1777818797 | 12.22° C | 54% | 1019 hPa | - | - | - | - |
| 1777817898 | 12.78° C | 51% | 1019 hPa | - | - | - | - |
| 1777817004 | 12.78° C | 51% | 1019 hPa | - | - | - | - |
| 1777816094 | 12.78° C | 51% | 1019 hPa | - | - | - | - |
| 1777815197 | 12.78° C | 51% | 1019 hPa | - | - | - | - |
| 1777814298 | 13.89° C | 51% | 1019 hPa | - | - | - | - |
| 1777813397 | 13.89° C | 51% | 1019 hPa | - | - | - | - |
* Rain since midnight (hover to see other rain measurements)
** Current wind speed in m/s (hover to see current wind gust speed)